sensor_id;sensor_type;location;lat;lon;timestamp;temperature;humidity
70151;DHT22;57517;43.562;19.540;2023-05-10T00:00:14;384.40;2099.20
70151;DHT22;57517;43.562;19.540;2023-05-10T00:02:40;384.40;2124.80
70151;DHT22;57517;43.562;19.540;2023-05-10T00:05:06;384.30;2150.40
70151;DHT22;57517;43.562;19.540;2023-05-10T00:07:32;384.20;2176.00
70151;DHT22;57517;43.562;19.540;2023-05-10T00:09:58;359.20;2227.20
70151;DHT22;57517;43.562;19.540;2023-05-10T00:12:24;359.10;2304.00
70151;DHT22;57517;43.562;19.540;2023-05-10T00:14:50;358.90;2329.60
70151;DHT22;57517;43.562;19.540;2023-05-10T00:17:15;358.80;2329.60
70151;DHT22;57517;43.562;19.540;2023-05-10T00:19:41;358.90;2329.60
70151;DHT22;57517;43.562;19.540;2023-05-10T00:22:07;358.80;2329.60
70151;DHT22;57517;43.562;19.540;2023-05-10T00:24:33;358.80;2329.60
70151;DHT22;57517;43.562;19.540;2023-05-10T00:26:58;358.90;2304.00
70151;DHT22;57517;43.562;19.540;2023-05-10T00:29:24;358.90;2329.60
70151;DHT22;57517;43.562;19.540;2023-05-10T00:31:50;359.00;2252.80
70151;DHT22;57517;43.562;19.540;2023-05-10T00:34:15;359.10;2227.20
70151;DHT22;57517;43.562;19.540;2023-05-10T00:36:41;359.30;2176.00
70151;DHT22;57517;43.562;19.540;2023-05-10T00:39:07;359.30;2176.00
70151;DHT22;57517;43.562;19.540;2023-05-10T00:41:33;359.20;2201.60
70151;DHT22;57517;43.562;19.540;2023-05-10T00:43:59;359.30;2176.00
70151;DHT22;57517;43.562;19.540;2023-05-10T00:46:25;359.30;2176.00
70151;DHT22;57517;43.562;19.540;2023-05-10T00:48:51;359.10;2252.80
70151;DHT22;57517;43.562;19.540;2023-05-10T00:51:17;359.20;2201.60
70151;DHT22;57517;43.562;19.540;2023-05-10T00:53:45;359.20;2201.60
70151;DHT22;57517;43.562;19.540;2023-05-10T00:56:12;384.00;2176.00
70151;DHT22;57517;43.562;19.540;2023-05-10T00:58:39;384.00;2176.00
70151;DHT22;57517;43.562;19.540;2023-05-10T01:01:05;384.00;2176.00
70151;DHT22;57517;43.562;19.540;2023-05-10T01:03:32;359.30;2176.00
70151;DHT22;57517;43.562;19.540;2023-05-10T01:05:58;384.10;2150.40
70151;DHT22;57517;43.562;19.540;2023-05-10T01:08:24;384.10;2124.80
70151;DHT22;57517;43.562;19.540;2023-05-10T01:10:50;384.20;2124.80
70151;DHT22;57517;43.562;19.540;2023-05-10T01:15:58;359.20;2201.60
70151;DHT22;57517;43.562;19.540;2023-05-10T01:18:26;359.20;2201.60
70151;DHT22;57517;43.562;19.540;2023-05-10T01:21:00;359.30;2227.20
70151;DHT22;57517;43.562;19.540;2023-05-10T01:29:24;358.70;2329.60
70151;DHT22;57517;43.562;19.540;2023-05-10T01:32:06;358.60;2329.60
70151;DHT22;57517;43.562;19.540;2023-05-10T01:37:15;358.60;2329.60
70151;DHT22;57517;43.562;19.540;2023-05-10T01:39:55;358.60;2329.60
70151;DHT22;57517;43.562;19.540;2023-05-10T01:42:26;358.50;2329.60
70151;DHT22;57517;43.562;19.540;2023-05-10T01:45:07;358.60;2329.60
70151;DHT22;57517;43.562;19.540;2023-05-10T01:47:44;358.70;2329.60
70151;DHT22;57517;43.562;19.540;2023-05-10T01:50:22;358.80;2329.60
70151;DHT22;57517;43.562;19.540;2023-05-10T01:52:53;358.90;2329.60
70151;DHT22;57517;43.562;19.540;2023-05-10T01:55:22;358.90;2329.60
70151;DHT22;57517;43.562;19.540;2023-05-10T01:57:56;359.00;2329.60
70151;DHT22;57517;43.562;19.540;2023-05-10T02:00:25;359.00;2329.60
70151;DHT22;57517;43.562;19.540;2023-05-10T02:02:52;359.00;2329.60
70151;DHT22;57517;43.562;19.540;2023-05-10T02:05:20;358.80;2329.60
70151;DHT22;57517;43.562;19.540;2023-05-10T02:07:47;358.70;2329.60
70151;DHT22;57517;43.562;19.540;2023-05-10T02:10:14;358.70;2329.60
70151;DHT22;57517;43.562;19.540;2023-05-10T02:12:43;358.70;2329.60
70151;DHT22;57517;43.562;19.540;2023-05-10T02:15:11;358.70;2329.60
70151;DHT22;57517;43.562;19.540;2023-05-10T02:17:39;358.80;2329.60
70151;DHT22;57517;43.562;19.540;2023-05-10T02:20:08;359.00;2329.60
70151;DHT22;57517;43.562;19.540;2023-05-10T02:22:35;359.00;2329.60
70151;DHT22;57517;43.562;19.540;2023-05-10T02:25:03;358.90;2329.60
70151;DHT22;57517;43.562;19.540;2023-05-10T02:27:30;358.80;2329.60
70151;DHT22;57517;43.562;19.540;2023-05-10T02:29:56;358.80;2329.60
70151;DHT22;57517;43.562;19.540;2023-05-10T02:32:24;358.80;2329.60
70151;DHT22;57517;43.562;19.540;2023-05-10T02:34:52;358.90;2304.00
70151;DHT22;57517;43.562;19.540;2023-05-10T02:37:21;358.90;2329.60
70151;DHT22;57517;43.562;19.540;2023-05-10T02:39:49;358.70;2329.60
70151;DHT22;57517;43.562;19.540;2023-05-10T02:42:19;358.60;2329.60
70151;DHT22;57517;43.562;19.540;2023-05-10T02:44:50;358.50;2329.60
70151;DHT22;57517;43.562;19.540;2023-05-10T02:47:17;358.40;2329.60
70151;DHT22;57517;43.562;19.540;2023-05-10T02:49:43;358.40;2329.60
70151;DHT22;57517;43.562;19.540;2023-05-10T02:52:10;358.40;2329.60
70151;DHT22;57517;43.562;19.540;2023-05-10T02:54:46;333.70;2329.60
70151;DHT22;57517;43.562;19.540;2023-05-10T02:57:16;358.50;2329.60
70151;DHT22;57517;43.562;19.540;2023-05-10T02:59:45;358.50;2329.60
70151;DHT22;57517;43.562;19.540;2023-05-10T03:02:14;358.40;2329.60
70151;DHT22;57517;43.562;19.540;2023-05-10T03:04:40;333.70;2329.60
70151;DHT22;57517;43.562;19.540;2023-05-10T03:07:06;358.40;2329.60
70151;DHT22;57517;43.562;19.540;2023-05-10T03:09:33;333.70;2329.60
70151;DHT22;57517;43.562;19.540;2023-05-10T03:12:11;333.70;2329.60
70151;DHT22;57517;43.562;19.540;2023-05-10T03:14:49;333.60;2329.60
70151;DHT22;57517;43.562;19.540;2023-05-10T03:17:40;333.50;2329.60
70151;DHT22;57517;43.562;19.540;2023-05-10T03:20:10;333.40;2329.60
70151;DHT22;57517;43.562;19.540;2023-05-10T03:22:50;333.30;2329.60
70151;DHT22;57517;43.562;19.540;2023-05-10T03:25:17;333.20;2329.60
70151;DHT22;57517;43.562;19.540;2023-05-10T03:27:44;333.20;2329.60
70151;DHT22;57517;43.562;19.540;2023-05-10T03:30:12;333.20;2329.60
70151;DHT22;57517;43.562;19.540;2023-05-10T03:32:38;333.20;2329.60
70151;DHT22;57517;43.562;19.540;2023-05-10T03:35:11;333.20;2329.60
70151;DHT22;57517;43.562;19.540;2023-05-10T03:37:38;333.20;2329.60
70151;DHT22;57517;43.562;19.540;2023-05-10T03:40:05;333.20;2329.60
70151;DHT22;57517;43.562;19.540;2023-05-10T03:42:31;333.30;2329.60
70151;DHT22;57517;43.562;19.540;2023-05-10T03:44:57;333.40;2329.60
70151;DHT22;57517;43.562;19.540;2023-05-10T03:47:22;333.60;2329.60
70151;DHT22;57517;43.562;19.540;2023-05-10T03:49:48;333.70;2329.60
70151;DHT22;57517;43.562;19.540;2023-05-10T03:52:14;358.40;2329.60
70151;DHT22;57517;43.562;19.540;2023-05-10T03:54:40;358.50;2329.60
70151;DHT22;57517;43.562;19.540;2023-05-10T03:57:05;358.50;2329.60
70151;DHT22;57517;43.562;19.540;2023-05-10T03:59:31;358.50;2329.60
70151;DHT22;57517;43.562;19.540;2023-05-10T04:01:58;358.50;2329.60
70151;DHT22;57517;43.562;19.540;2023-05-10T04:04:24;333.70;2329.60
70151;DHT22;57517;43.562;19.540;2023-05-10T04:06:50;333.70;2329.60
70151;DHT22;57517;43.562;19.540;2023-05-10T04:09:16;358.40;2329.60
70151;DHT22;57517;43.562;19.540;2023-05-10T04:11:42;333.70;2329.60
70151;DHT22;57517;43.562;19.540;2023-05-10T04:14:08;358.40;2329.60
70151;DHT22;57517;43.562;19.540;2023-05-10T04:16:34;358.40;2329.60
70151;DHT22;57517;43.562;19.540;2023-05-10T04:19:00;358.40;2329.60
70151;DHT22;57517;43.562;19.540;2023-05-10T04:21:26;333.70;2329.60
70151;DHT22;57517;43.562;19.540;2023-05-10T04:23:52;333.60;2329.60
70151;DHT22;57517;43.562;19.540;2023-05-10T04:26:17;333.50;2329.60
70151;DHT22;57517;43.562;19.540;2023-05-10T04:28:43;333.70;2329.60
70151;DHT22;57517;43.562;19.540;2023-05-10T04:31:09;358.50;2329.60
70151;DHT22;57517;43.562;19.540;2023-05-10T04:33:36;358.60;2329.60
70151;DHT22;57517;43.562;19.540;2023-05-10T04:36:02;358.80;2329.60
70151;DHT22;57517;43.562;19.540;2023-05-10T04:38:28;358.90;2329.60
70151;DHT22;57517;43.562;19.540;2023-05-10T04:40:54;359.00;2329.60
70151;DHT22;57517;43.562;19.540;2023-05-10T04:43:20;359.00;2329.60
70151;DHT22;57517;43.562;19.540;2023-05-10T04:45:46;359.10;2329.60
70151;DHT22;57517;43.562;19.540;2023-05-10T04:48:12;359.10;2329.60
70151;DHT22;57517;43.562;19.540;2023-05-10T04:50:38;359.10;2329.60
70151;DHT22;57517;43.562;19.540;2023-05-10T04:53:04;359.30;2329.60
70151;DHT22;57517;43.562;19.540;2023-05-10T04:55:30;384.20;2329.60
70151;DHT22;57517;43.562;19.540;2023-05-10T04:57:56;384.40;2329.60
70151;DHT22;57517;43.562;19.540;2023-05-10T05:00:23;384.60;2329.60
70151;DHT22;57517;43.562;19.540;2023-05-10T05:02:49;384.70;2304.00
70151;DHT22;57517;43.562;19.540;2023-05-10T05:05:15;384.80;2252.80
70151;DHT22;57517;43.562;19.540;2023-05-10T05:07:40;409.60;2201.60
70151;DHT22;57517;43.562;19.540;2023-05-10T05:10:07;409.70;2227.20
70151;DHT22;57517;43.562;19.540;2023-05-10T05:12:34;409.80;2150.40
70151;DHT22;57517;43.562;19.540;2023-05-10T05:15:00;409.80;2150.40
70151;DHT22;57517;43.562;19.540;2023-05-10T05:17:26;410.00;2150.40
70151;DHT22;57517;43.562;19.540;2023-05-10T05:19:51;410.00;2150.40
70151;DHT22;57517;43.562;19.540;2023-05-10T05:22:17;410.00;2252.80
70151;DHT22;57517;43.562;19.540;2023-05-10T05:24:45;410.00;2252.80
70151;DHT22;57517;43.562;19.540;2023-05-10T05:27:11;410.00;2176.00
70151;DHT22;57517;43.562;19.540;2023-05-10T05:29:36;409.80;2201.60
70151;DHT22;57517;43.562;19.540;2023-05-10T05:32:02;409.80;2176.00
70151;DHT22;57517;43.562;19.540;2023-05-10T05:34:28;409.90;2201.60
70151;DHT22;57517;43.562;19.540;2023-05-10T05:36:54;410.10;2150.40
70151;DHT22;57517;43.562;19.540;2023-05-10T05:39:20;410.30;2150.40
70151;DHT22;57517;43.562;19.540;2023-05-10T05:41:46;410.10;2099.20
70151;DHT22;57517;43.562;19.540;2023-05-10T05:44:12;410.30;2150.40
70151;DHT22;57517;43.562;19.540;2023-05-10T05:46:38;410.20;2099.20
70151;DHT22;57517;43.562;19.540;2023-05-10T05:49:04;410.00;2124.80
70151;DHT22;57517;43.562;19.540;2023-05-10T05:51:30;410.00;2099.20
70151;DHT22;57517;43.562;19.540;2023-05-10T05:53:56;409.80;2176.00
70151;DHT22;57517;43.562;19.540;2023-05-10T05:56:22;409.80;2176.00
70151;DHT22;57517;43.562;19.540;2023-05-10T05:58:51;409.80;2201.60
70151;DHT22;57517;43.562;19.540;2023-05-10T06:01:16;410.00;2150.40
70151;DHT22;57517;43.562;19.540;2023-05-10T06:03:42;410.00;2150.40
70151;DHT22;57517;43.562;19.540;2023-05-10T06:06:08;410.00;2099.20
70151;DHT22;57517;43.562;19.540;2023-05-10T06:08:34;410.00;2073.60
70151;DHT22;57517;43.562;19.540;2023-05-10T06:11:00;410.10;2073.60
70151;DHT22;57517;43.562;19.540;2023-05-10T06:13:26;410.20;2073.60
70151;DHT22;57517;43.562;19.540;2023-05-10T06:15:58;410.20;2048.00
70151;DHT22;57517;43.562;19.540;2023-05-10T06:18:24;410.10;2099.20
70151;DHT22;57517;43.562;19.540;2023-05-10T06:20:50;410.20;2048.00
70151;DHT22;57517;43.562;19.540;2023-05-10T06:23:17;410.00;2176.00
70151;DHT22;57517;43.562;19.540;2023-05-10T06:25:43;410.00;2124.80
70151;DHT22;57517;43.562;19.540;2023-05-10T06:28:08;410.10;2073.60
70151;DHT22;57517;43.562;19.540;2023-05-10T06:30:36;410.00;2099.20
70151;DHT22;57517;43.562;19.540;2023-05-10T06:33:01;410.10;2073.60
70151;DHT22;57517;43.562;19.540;2023-05-10T06:35:28;410.10;2048.00
70151;DHT22;57517;43.562;19.540;2023-05-10T06:37:54;410.10;2073.60
70151;DHT22;57517;43.562;19.540;2023-05-10T06:40:19;410.30;2022.40
70151;DHT22;57517;43.562;19.540;2023-05-10T06:42:46;410.40;2022.40
70151;DHT22;57517;43.562;19.540;2023-05-10T06:45:12;410.50;1996.80
70151;DHT22;57517;43.562;19.540;2023-05-10T06:47:38;410.30;2048.00
70151;DHT22;57517;43.562;19.540;2023-05-10T06:50:04;410.50;2048.00
70151;DHT22;57517;43.562;19.540;2023-05-10T06:52:30;410.40;2022.40
70151;DHT22;57517;43.562;19.540;2023-05-10T06:54:56;410.50;1996.80
70151;DHT22;57517;43.562;19.540;2023-05-10T06:57:23;410.50;1971.20
70151;DHT22;57517;43.562;19.540;2023-05-10T06:59:48;410.40;2048.00
70151;DHT22;57517;43.562;19.540;2023-05-10T07:02:14;410.50;2048.00
70151;DHT22;57517;43.562;19.540;2023-05-10T07:04:40;410.30;2073.60
70151;DHT22;57517;43.562;19.540;2023-05-10T07:07:06;410.30;2099.20
70151;DHT22;57517;43.562;19.540;2023-05-10T07:09:31;410.30;2073.60
70151;DHT22;57517;43.562;19.540;2023-05-10T07:11:57;410.30;2073.60
70151;DHT22;57517;43.562;19.540;2023-05-10T07:14:23;410.30;2048.00
70151;DHT22;57517;43.562;19.540;2023-05-10T07:16:49;410.50;2048.00
70151;DHT22;57517;43.562;19.540;2023-05-10T07:19:15;410.50;1996.80
70151;DHT22;57517;43.562;19.540;2023-05-10T07:21:40;410.40;2048.00
70151;DHT22;57517;43.562;19.540;2023-05-10T07:24:08;410.40;2073.60
70151;DHT22;57517;43.562;19.540;2023-05-10T07:26:34;410.40;2176.00
70151;DHT22;57517;43.562;19.540;2023-05-10T07:29:00;410.30;2329.60
70151;DHT22;57517;43.562;19.540;2023-05-10T07:31:26;410.30;2355.20
70151;DHT22;57517;43.562;19.540;2023-05-10T07:33:52;410.30;2355.20
70151;DHT22;57517;43.562;19.540;2023-05-10T07:36:18;410.40;2355.20
70151;DHT22;57517;43.562;19.540;2023-05-10T07:38:44;410.30;2355.20
70151;DHT22;57517;43.562;19.540;2023-05-10T07:41:11;410.40;2355.20
70151;DHT22;57517;43.562;19.540;2023-05-10T07:43:37;410.40;2355.20
70151;DHT22;57517;43.562;19.540;2023-05-10T07:46:03;410.50;2355.20
70151;DHT22;57517;43.562;19.540;2023-05-10T07:48:29;435.40;2355.20
70151;DHT22;57517;43.562;19.540;2023-05-10T07:50:54;435.40;2329.60
70151;DHT22;57517;43.562;19.540;2023-05-10T07:53:20;435.70;2150.40
70151;DHT22;57517;43.562;19.540;2023-05-10T07:55:54;436.00;2124.80
70151;DHT22;57517;43.562;19.540;2023-05-10T07:58:23;460.90;2176.00
70151;DHT22;57517;43.562;19.540;2023-05-10T08:00:49;461.20;2176.00
70151;DHT22;57517;43.562;19.540;2023-05-10T08:03:15;461.40;2099.20
70151;DHT22;57517;43.562;19.540;2023-05-10T08:05:41;461.60;2073.60
70151;DHT22;57517;43.562;19.540;2023-05-10T08:08:07;461.70;2048.00
70151;DHT22;57517;43.562;19.540;2023-05-10T08:10:33;461.70;2048.00
70151;DHT22;57517;43.562;19.540;2023-05-10T08:12:58;486.50;1945.60
70151;DHT22;57517;43.562;19.540;2023-05-10T08:15:24;461.70;1996.80
70151;DHT22;57517;43.562;19.540;2023-05-10T08:17:53;486.50;1945.60
70151;DHT22;57517;43.562;19.540;2023-05-10T08:20:20;486.50;1894.40
70151;DHT22;57517;43.562;19.540;2023-05-10T08:22:46;486.50;1894.40
70151;DHT22;57517;43.562;19.540;2023-05-10T08:25:11;486.40;1920.00
70151;DHT22;57517;43.562;19.540;2023-05-10T08:27:37;486.50;1894.40
70151;DHT22;57517;43.562;19.540;2023-05-10T08:30:03;486.50;1894.40
70151;DHT22;57517;43.562;19.540;2023-05-10T08:32:29;486.50;1894.40
70151;DHT22;57517;43.562;19.540;2023-05-10T08:34:55;461.70;1894.40
70151;DHT22;57517;43.562;19.540;2023-05-10T08:37:23;461.70;1868.80
70151;DHT22;57517;43.562;19.540;2023-05-10T08:39:48;461.70;1894.40
70151;DHT22;57517;43.562;19.540;2023-05-10T08:42:16;461.50;1945.60
70151;DHT22;57517;43.562;19.540;2023-05-10T08:44:45;461.50;1971.20
70151;DHT22;57517;43.562;19.540;2023-05-10T08:47:15;461.40;1996.80
70151;DHT22;57517;43.562;19.540;2023-05-10T08:49:42;461.50;1996.80
70151;DHT22;57517;43.562;19.540;2023-05-10T08:52:11;461.50;1945.60
70151;DHT22;57517;43.562;19.540;2023-05-10T08:54:38;461.40;1971.20
70151;DHT22;57517;43.562;19.540;2023-05-10T08:57:04;461.40;1971.20
70151;DHT22;57517;43.562;19.540;2023-05-10T08:59:31;461.50;1971.20
70151;DHT22;57517;43.562;19.540;2023-05-10T09:01:59;461.50;1945.60
70151;DHT22;57517;43.562;19.540;2023-05-10T09:04:25;461.70;1920.00
70151;DHT22;57517;43.562;19.540;2023-05-10T09:06:51;461.70;1920.00
70151;DHT22;57517;43.562;19.540;2023-05-10T09:09:18;461.70;1920.00
70151;DHT22;57517;43.562;19.540;2023-05-10T09:11:45;486.50;1843.20
70151;DHT22;57517;43.562;19.540;2023-05-10T09:14:12;461.70;1868.80
70151;DHT22;57517;43.562;19.540;2023-05-10T09:16:39;486.50;1843.20
70151;DHT22;57517;43.562;19.540;2023-05-10T09:19:05;486.80;1792.00
70151;DHT22;57517;43.562;19.540;2023-05-10T09:21:33;486.80;1740.80
70151;DHT22;57517;43.562;19.540;2023-05-10T09:24:04;486.90;1766.40
70151;DHT22;57517;43.562;19.540;2023-05-10T09:26:30;487.10;1792.00
70151;DHT22;57517;43.562;19.540;2023-05-10T09:28:57;487.10;1740.80
70151;DHT22;57517;43.562;19.540;2023-05-10T09:31:24;512.10;1664.00
70151;DHT22;57517;43.562;19.540;2023-05-10T09:33:53;512.10;1740.80
70151;DHT22;57517;43.562;19.540;2023-05-10T09:36:19;512.40;1715.20
70151;DHT22;57517;43.562;19.540;2023-05-10T09:38:52;512.40;1638.40
70151;DHT22;57517;43.562;19.540;2023-05-10T09:41:22;512.10;1689.60
70151;DHT22;57517;43.562;19.540;2023-05-10T09:43:49;512.00;1715.20
70151;DHT22;57517;43.562;19.540;2023-05-10T09:46:15;512.30;1715.20
70151;DHT22;57517;43.562;19.540;2023-05-10T09:48:45;512.10;1740.80
70151;DHT22;57517;43.562;19.540;2023-05-10T09:51:22;512.30;1689.60
70151;DHT22;57517;43.562;19.540;2023-05-10T09:53:48;512.40;1689.60
70151;DHT22;57517;43.562;19.540;2023-05-10T09:56:33;512.70;1664.00
70151;DHT22;57517;43.562;19.540;2023-05-10T09:59:04;512.80;1612.80
70151;DHT22;57517;43.562;19.540;2023-05-10T10:01:30;512.90;1638.40
70151;DHT22;57517;43.562;19.540;2023-05-10T10:03:56;537.60;1664.00
70151;DHT22;57517;43.562;19.540;2023-05-10T10:06:25;537.80;1612.80
70151;DHT22;57517;43.562;19.540;2023-05-10T10:08:52;538.00;1561.60
70151;DHT22;57517;43.562;19.540;2023-05-10T10:11:19;538.30;1561.60
70151;DHT22;57517;43.562;19.540;2023-05-10T10:13:44;538.20;1587.20
70151;DHT22;57517;43.562;19.540;2023-05-10T10:16:10;538.30;1561.60
70151;DHT22;57517;43.562;19.540;2023-05-10T10:18:36;563.40;1561.60
70151;DHT22;57517;43.562;19.540;2023-05-10T10:21:08;564.00;1536.00
70151;DHT22;57517;43.562;19.540;2023-05-10T10:23:37;588.90;1459.20
70151;DHT22;57517;43.562;19.540;2023-05-10T10:26:04;588.80;1433.60
70151;DHT22;57517;43.562;19.540;2023-05-10T10:28:56;564.10;1459.20
70151;DHT22;57517;43.562;19.540;2023-05-10T10:31:36;564.00;1459.20
70151;DHT22;57517;43.562;19.540;2023-05-10T10:34:10;588.80;1459.20
70151;DHT22;57517;43.562;19.540;2023-05-10T10:36:44;589.40;1433.60
70151;DHT22;57517;43.562;19.540;2023-05-10T10:39:11;589.50;1408.00
70151;DHT22;57517;43.562;19.540;2023-05-10T10:49:31;589.20;1382.40
70151;DHT22;57517;43.562;19.540;2023-05-10T10:52:24;589.00;1408.00
70151;DHT22;57517;43.562;19.540;2023-05-10T10:55:02;589.20;1433.60
70151;DHT22;57517;43.562;19.540;2023-05-10T10:57:30;589.40;1408.00
70151;DHT22;57517;43.562;19.540;2023-05-10T11:02:49;589.40;1408.00
70151;DHT22;57517;43.562;19.540;2023-05-10T11:08:08;588.90;1433.60
70151;DHT22;57517;43.562;19.540;2023-05-10T11:10:34;564.00;1459.20
70151;DHT22;57517;43.562;19.540;2023-05-10T11:13:07;563.90;1484.80
70151;DHT22;57517;43.562;19.540;2023-05-10T11:15:38;563.90;1484.80
70151;DHT22;57517;43.562;19.540;2023-05-10T11:18:20;563.90;1484.80
70151;DHT22;57517;43.562;19.540;2023-05-10T11:21:12;563.90;1510.40
70151;DHT22;57517;43.562;19.540;2023-05-10T11:26:09;564.10;1510.40
70151;DHT22;57517;43.562;19.540;2023-05-10T11:28:45;564.00;1459.20
70151;DHT22;57517;43.562;19.540;2023-05-10T11:31:14;564.10;1459.20
70151;DHT22;57517;43.562;19.540;2023-05-10T11:33:51;564.00;1459.20
70151;DHT22;57517;43.562;19.540;2023-05-10T11:36:23;564.10;1459.20
70151;DHT22;57517;43.562;19.540;2023-05-10T11:38:49;564.10;1408.00
70151;DHT22;57517;43.562;19.540;2023-05-10T11:41:17;564.00;1408.00
70151;DHT22;57517;43.562;19.540;2023-05-10T11:43:43;564.00;1408.00
70151;DHT22;57517;43.562;19.540;2023-05-10T11:46:12;563.90;1382.40
70151;DHT22;57517;43.562;19.540;2023-05-10T11:48:40;564.00;1356.80
70151;DHT22;57517;43.562;19.540;2023-05-10T11:51:10;564.10;1305.60
70151;DHT22;57517;43.562;19.540;2023-05-10T11:53:36;564.10;1331.20
70151;DHT22;57517;43.562;19.540;2023-05-10T11:56:08;588.90;1305.60
70151;DHT22;57517;43.562;19.540;2023-05-10T11:58:34;589.10;1280.00
70151;DHT22;57517;43.562;19.540;2023-05-10T12:01:01;589.30;1280.00
70151;DHT22;57517;43.562;19.540;2023-05-10T12:03:27;589.40;1280.00
70151;DHT22;57517;43.562;19.540;2023-05-10T12:05:57;589.40;1254.40
70151;DHT22;57517;43.562;19.540;2023-05-10T12:08:28;589.40;1254.40
70151;DHT22;57517;43.562;19.540;2023-05-10T12:11:07;589.30;1280.00
70151;DHT22;57517;43.562;19.540;2023-05-10T12:13:41;589.20;1280.00
70151;DHT22;57517;43.562;19.540;2023-05-10T12:16:18;589.30;1280.00
70151;DHT22;57517;43.562;19.540;2023-05-10T12:18:45;589.40;1280.00
70151;DHT22;57517;43.562;19.540;2023-05-10T12:21:11;589.60;1254.40
70151;DHT22;57517;43.562;19.540;2023-05-10T12:23:39;589.50;1228.80
70151;DHT22;57517;43.562;19.540;2023-05-10T12:26:05;589.60;1203.20
70151;DHT22;57517;43.562;19.540;2023-05-10T12:28:32;614.40;1203.20
70151;DHT22;57517;43.562;19.540;2023-05-10T12:30:59;614.50;1152.00
70151;DHT22;57517;43.562;19.540;2023-05-10T12:33:25;614.50;1177.60
70151;DHT22;57517;43.562;19.540;2023-05-10T12:35:53;614.60;1126.40
70151;DHT22;57517;43.562;19.540;2023-05-10T12:38:35;614.60;1126.40
70151;DHT22;57517;43.562;19.540;2023-05-10T12:41:04;614.80;1100.80
70151;DHT22;57517;43.562;19.540;2023-05-10T12:43:31;614.90;1100.80
70151;DHT22;57517;43.562;19.540;2023-05-10T12:45:58;615.00;1075.20
70151;DHT22;57517;43.562;19.540;2023-05-10T12:48:24;615.30;1075.20
70151;DHT22;57517;43.562;19.540;2023-05-10T12:50:50;640.00;1075.20
70151;DHT22;57517;43.562;19.540;2023-05-10T12:53:16;640.10;1100.80
70151;DHT22;57517;43.562;19.540;2023-05-10T12:55:43;615.20;1126.40
70151;DHT22;57517;43.562;19.540;2023-05-10T12:58:09;615.30;1100.80
70151;DHT22;57517;43.562;19.540;2023-05-10T13:00:34;640.00;1126.40
70151;DHT22;57517;43.562;19.540;2023-05-10T13:03:00;640.00;1126.40
70151;DHT22;57517;43.562;19.540;2023-05-10T13:05:26;640.00;1152.00
70151;DHT22;57517;43.562;19.540;2023-05-10T13:07:52;640.00;1152.00
70151;DHT22;57517;43.562;19.540;2023-05-10T13:10:17;640.00;1177.60
70151;DHT22;57517;43.562;19.540;2023-05-10T13:12:43;640.10;1152.00
70151;DHT22;57517;43.562;19.540;2023-05-10T13:15:09;640.10;1126.40
70151;DHT22;57517;43.562;19.540;2023-05-10T13:17:35;640.20;1100.80
70151;DHT22;57517;43.562;19.540;2023-05-10T13:20:01;640.50;1100.80
70151;DHT22;57517;43.562;19.540;2023-05-10T13:22:26;640.70;1049.60
70151;DHT22;57517;43.562;19.540;2023-05-10T13:24:52;640.80;1049.60
70151;DHT22;57517;43.562;19.540;2023-05-10T13:27:18;640.70;1049.60
70151;DHT22;57517;43.562;19.540;2023-05-10T13:29:43;640.70;1049.60
70151;DHT22;57517;43.562;19.540;2023-05-10T13:32:09;640.60;1049.60
70151;DHT22;57517;43.562;19.540;2023-05-10T13:34:35;640.20;1075.20
70151;DHT22;57517;43.562;19.540;2023-05-10T13:37:01;615.10;1152.00
70151;DHT22;57517;43.562;19.540;2023-05-10T13:39:27;614.60;1203.20
70151;DHT22;57517;43.562;19.540;2023-05-10T13:41:53;589.70;1228.80
70151;DHT22;57517;43.562;19.540;2023-05-10T13:44:20;589.40;1280.00
70151;DHT22;57517;43.562;19.540;2023-05-10T13:46:46;589.10;1280.00
70151;DHT22;57517;43.562;19.540;2023-05-10T13:49:11;589.00;1280.00
70151;DHT22;57517;43.562;19.540;2023-05-10T13:51:37;564.00;1331.20
70151;DHT22;57517;43.562;19.540;2023-05-10T13:54:03;563.90;1331.20
70151;DHT22;57517;43.562;19.540;2023-05-10T13:56:29;563.70;1356.80
70151;DHT22;57517;43.562;19.540;2023-05-10T13:58:56;563.50;1408.00
70151;DHT22;57517;43.562;19.540;2023-05-10T14:01:22;563.30;1408.00
70151;DHT22;57517;43.562;19.540;2023-05-10T14:03:48;538.40;1408.00
70151;DHT22;57517;43.562;19.540;2023-05-10T14:06:14;538.20;1408.00
70151;DHT22;57517;43.562;19.540;2023-05-10T14:08:40;538.10;1433.60
70151;DHT22;57517;43.562;19.540;2023-05-10T14:11:06;537.90;1433.60
70151;DHT22;57517;43.562;19.540;2023-05-10T14:13:32;537.90;1459.20
70151;DHT22;57517;43.562;19.540;2023-05-10T14:15:58;537.80;1459.20
70151;DHT22;57517;43.562;19.540;2023-05-10T14:18:26;537.90;1536.00
70151;DHT22;57517;43.562;19.540;2023-05-10T14:20:52;537.80;1536.00
70151;DHT22;57517;43.562;19.540;2023-05-10T14:23:18;512.90;1612.80
70151;DHT22;57517;43.562;19.540;2023-05-10T14:25:52;512.90;1664.00
70151;DHT22;57517;43.562;19.540;2023-05-10T14:28:18;512.80;1740.80
70151;DHT22;57517;43.562;19.540;2023-05-10T14:30:44;512.90;1868.80
70151;DHT22;57517;43.562;19.540;2023-05-10T14:33:10;512.80;1766.40
70151;DHT22;57517;43.562;19.540;2023-05-10T14:35:36;512.60;1894.40
70151;DHT22;57517;43.562;19.540;2023-05-10T14:38:03;512.50;1868.80
70151;DHT22;57517;43.562;19.540;2023-05-10T14:40:29;512.20;2048.00
70151;DHT22;57517;43.562;19.540;2023-05-10T14:42:56;512.10;1996.80
70151;DHT22;57517;43.562;19.540;2023-05-10T14:45:23;512.10;1971.20
70151;DHT22;57517;43.562;19.540;2023-05-10T14:47:49;512.00;1920.00
70151;DHT22;57517;43.562;19.540;2023-05-10T14:50:19;512.10;1920.00
70151;DHT22;57517;43.562;19.540;2023-05-10T14:52:45;512.00;1996.80
70151;DHT22;57517;43.562;19.540;2023-05-10T14:55:11;512.00;1920.00
70151;DHT22;57517;43.562;19.540;2023-05-10T14:57:38;512.00;1945.60
70151;DHT22;57517;43.562;19.540;2023-05-10T15:00:04;487.20;1920.00
70151;DHT22;57517;43.562;19.540;2023-05-10T15:02:31;487.20;1971.20
70151;DHT22;57517;43.562;19.540;2023-05-10T15:04:57;487.30;1920.00